createdAt,value
2019-01-20T00:00:15.611Z,36.70
2019-01-20T00:02:19.346Z,41.98
2019-01-20T00:04:23.049Z,37.10
2019-01-20T00:06:26.645Z,42.05
2019-01-20T00:08:30.304Z,43.58
2019-01-20T00:10:34.072Z,42.05
2019-01-20T00:12:37.816Z,40.52
2019-01-20T00:14:41.535Z,44.48
2019-01-20T00:16:45.256Z,45.80
2019-01-20T00:18:48.946Z,46.35
2019-01-20T00:20:52.661Z,50.75
2019-01-20T00:22:56.491Z,49.20
2019-01-20T00:25:00.252Z,40.20
2019-01-20T00:27:04.086Z,43.28
2019-01-20T00:29:07.853Z,51.15
2019-01-20T00:31:11.730Z,47.88
2019-01-20T00:33:15.381Z,38.95
2019-01-20T00:35:19.159Z,49.77
2019-01-20T00:37:22.869Z,41.60
2019-01-20T00:39:26.600Z,43.80
2019-01-20T00:41:30.357Z,47.53
2019-01-20T00:43:34.092Z,51.00
2019-01-20T00:45:37.818Z,60.65
2019-01-20T00:47:41.554Z,47.70
2019-01-20T00:49:45.210Z,54.65
2019-01-20T00:51:49.006Z,49.00
2019-01-20T00:53:52.681Z,51.73
2019-01-20T00:55:56.386Z,50.85
2019-01-20T00:58:00.252Z,43.45
2019-01-20T01:00:06.811Z,47.62
2019-01-20T01:02:10.590Z,47.40
2019-01-20T01:04:14.246Z,41.98
2019-01-20T01:06:19.448Z,47.08
2019-01-20T01:08:23.214Z,51.33
2019-01-20T01:10:27.081Z,69.70
2019-01-20T01:12:31.319Z,54.53
2019-01-20T01:14:34.956Z,53.30
2019-01-20T01:16:38.727Z,49.45
2019-01-20T01:18:42.464Z,45.52
2019-01-20T01:20:46.252Z,47.80
2019-01-20T01:22:49.982Z,50.03
2019-01-20T01:24:53.707Z,47.33
2019-01-20T01:26:57.341Z,45.48
2019-01-20T01:29:01.077Z,45.80
2019-01-20T01:31:04.947Z,46.80
2019-01-20T01:33:08.687Z,49.25
2019-01-20T01:35:12.617Z,56.80
2019-01-20T01:37:16.402Z,50.60
2019-01-20T01:39:20.342Z,50.45
2019-01-20T01:41:24.046Z,43.42
2019-01-20T01:43:27.675Z,47.58
2019-01-20T01:45:31.426Z,53.70
2019-01-20T01:47:35.316Z,46.92
2019-01-20T01:49:38.980Z,48.70
2019-01-20T01:51:42.599Z,46.42
2019-01-20T01:53:46.242Z,45.78
2019-01-20T01:55:49.973Z,48.23
2019-01-20T01:57:53.772Z,45.00
2019-01-20T01:59:57.481Z,44.77
2019-01-20T02:02:01.094Z,47.65
2019-01-20T02:04:05.182Z,52.78
2019-01-20T02:06:08.939Z,44.65
2019-01-20T02:08:12.648Z,53.10
2019-01-20T02:10:19.509Z,40.15
2019-01-20T02:12:23.165Z,44.08
2019-01-20T02:14:26.854Z,45.25
2019-01-20T02:16:30.572Z,45.95
2019-01-20T02:18:34.425Z,43.05
2019-01-20T02:20:38.092Z,46.85
2019-01-20T02:22:42.265Z,44.45
2019-01-20T02:24:45.956Z,41.13
2019-01-20T02:26:49.644Z,47.65
2019-01-20T02:28:53.372Z,46.30
2019-01-20T02:30:57.117Z,43.87
2019-01-20T02:33:00.862Z,44.13
2019-01-20T02:35:05.748Z,41.35
2019-01-20T02:37:09.563Z,39.00
2019-01-20T02:39:13.263Z,42.83
2019-01-20T02:41:17.004Z,43.83
2019-01-20T02:43:20.721Z,38.83
2019-01-20T02:45:24.401Z,50.58
2019-01-20T02:47:28.066Z,47.10
2019-01-20T02:49:31.898Z,52.35
2019-01-20T02:51:35.597Z,45.15
2019-01-20T02:53:39.418Z,45.00
2019-01-20T02:55:43.232Z,43.28
2019-01-20T02:57:46.902Z,43.02
2019-01-20T02:59:50.624Z,46.10
2019-01-20T03:01:54.912Z,49.90
2019-01-20T03:03:58.620Z,53.10
2019-01-20T03:06:02.333Z,47.85
2019-01-20T03:08:06.052Z,42.10
2019-01-20T03:10:12.026Z,42.85
2019-01-20T03:12:15.707Z,45.20
2019-01-20T03:14:19.371Z,48.08
2019-01-20T03:16:23.040Z,51.08
2019-01-20T03:18:26.645Z,46.15
2019-01-20T03:20:30.491Z,46.30
2019-01-20T03:22:34.261Z,50.03
2019-01-20T03:24:37.916Z,50.78
2019-01-20T03:26:41.795Z,54.73
2019-01-20T03:28:45.555Z,44.45
2019-01-20T03:30:49.299Z,51.18
2019-01-20T03:32:52.975Z,50.25
2019-01-20T03:34:56.707Z,49.73
2019-01-20T03:37:00.437Z,50.88
2019-01-20T03:39:05.365Z,44.60
2019-01-20T03:41:08.993Z,44.93
2019-01-20T03:43:12.670Z,47.58
2019-01-20T03:45:20.196Z,52.75
2019-01-20T03:47:23.953Z,45.60
2019-01-20T03:49:27.622Z,52.20
2019-01-20T03:51:31.360Z,51.80
2019-01-20T03:53:35.118Z,44.08
2019-01-20T03:55:38.810Z,41.92
2019-01-20T03:57:42.537Z,43.08
2019-01-20T03:59:46.286Z,45.23
2019-01-20T04:01:49.987Z,41.80
2019-01-20T04:03:53.726Z,45.50
2019-01-20T04:05:57.545Z,45.33
2019-01-20T04:08:01.302Z,46.73
2019-01-20T04:10:10.465Z,45.83
2019-01-20T04:12:20.459Z,51.65
2019-01-20T04:14:19.711Z,45.52
2019-01-20T04:16:23.490Z,41.30
2019-01-20T04:18:27.206Z,45.98
2019-01-20T04:20:30.997Z,48.58
2019-01-20T04:22:34.673Z,41.60
2019-01-20T04:24:38.397Z,46.23
2019-01-20T04:26:42.278Z,46.77
2019-01-20T04:28:46.260Z,44.55
2019-01-20T04:30:49.917Z,47.00
2019-01-20T04:32:53.780Z,44.23
2019-01-20T04:34:57.613Z,50.08
2019-01-20T04:37:01.428Z,46.45
2019-01-20T04:39:06.978Z,40.45
2019-01-20T04:41:10.718Z,43.95
2019-01-20T04:43:14.494Z,41.55
2019-01-20T04:45:18.186Z,43.95
2019-01-20T04:47:21.939Z,46.77
2019-01-20T04:49:25.693Z,46.33
2019-01-20T04:51:29.464Z,42.90
2019-01-20T04:53:33.330Z,43.50
2019-01-20T04:55:37.064Z,44.58
2019-01-20T04:57:41.118Z,38.78
2019-01-20T04:59:44.741Z,45.83
2019-01-20T05:01:48.460Z,44.33
2019-01-20T05:03:52.176Z,44.80
2019-01-20T05:05:55.989Z,42.15
2019-01-20T05:07:59.658Z,40.52
2019-01-20T05:10:06.170Z,36.10
2019-01-20T05:12:10.014Z,38.17
2019-01-20T05:14:13.926Z,37.20
2019-01-20T05:16:17.576Z,40.20
2019-01-20T05:18:21.334Z,37.98
2019-01-20T05:20:25.133Z,38.08
2019-01-20T05:22:28.852Z,40.95
2019-01-20T05:24:32.554Z,41.35
2019-01-20T05:26:36.345Z,35.58
2019-01-20T05:28:40.039Z,33.85
2019-01-20T05:30:43.728Z,42.38
2019-01-20T05:32:47.463Z,40.65
2019-01-20T05:34:51.230Z,43.02
2019-01-20T05:36:54.924Z,46.10
2019-01-20T05:38:58.645Z,44.13
2019-01-20T05:41:02.336Z,40.48
2019-01-20T05:43:05.982Z,40.10
2019-01-20T05:45:12.567Z,44.75
2019-01-20T05:47:16.322Z,38.73
2019-01-20T05:49:20.052Z,44.65
2019-01-20T05:51:23.716Z,40.85
2019-01-20T05:53:27.404Z,43.28
2019-01-20T05:55:31.091Z,41.35
2019-01-20T05:57:34.675Z,40.78
2019-01-20T05:59:38.394Z,40.95
2019-01-20T06:01:42.188Z,45.80
2019-01-20T06:03:45.889Z,45.05
2019-01-20T06:05:49.617Z,50.23
2019-01-20T06:07:53.299Z,43.68
2019-01-20T06:09:57.053Z,46.53
2019-01-20T06:12:00.801Z,42.20
2019-01-20T06:14:04.516Z,45.33
2019-01-20T06:16:08.282Z,40.65
2019-01-20T06:18:12.040Z,39.08
2019-01-20T06:20:16.520Z,40.70
2019-01-20T06:22:20.236Z,40.03
2019-01-20T06:24:23.800Z,44.05
2019-01-20T06:26:27.485Z,37.17
2019-01-20T06:28:31.235Z,41.60
2019-01-20T06:30:35.019Z,46.98
2019-01-20T06:32:38.646Z,38.48
2019-01-20T06:34:42.442Z,42.13
2019-01-20T06:36:46.296Z,42.78
2019-01-20T06:38:50.152Z,43.80
2019-01-20T06:40:53.866Z,41.65
2019-01-20T06:43:02.273Z,44.95
2019-01-20T06:45:03.329Z,38.88
2019-01-20T06:47:07.064Z,40.60
2019-01-20T06:49:10.673Z,44.15
2019-01-20T06:51:15.863Z,39.42
2019-01-20T06:53:19.558Z,38.53
2019-01-20T06:55:23.314Z,40.83
2019-01-20T06:57:27.125Z,45.67
2019-01-20T06:59:30.868Z,41.45
2019-01-20T07:01:34.672Z,41.85
2019-01-20T07:03:38.389Z,42.30
2019-01-20T07:05:42.125Z,41.85
2019-01-20T07:07:45.905Z,40.65
2019-01-20T07:09:49.627Z,50.38
2019-01-20T07:11:53.501Z,46.98
2019-01-20T07:13:59.778Z,44.98
2019-01-20T07:16:02.600Z,48.68
2019-01-20T07:18:06.331Z,44.48
2019-01-20T07:20:12.160Z,41.55
2019-01-20T07:22:15.955Z,40.48
2019-01-20T07:24:19.632Z,43.25
2019-01-20T07:26:23.350Z,38.95
2019-01-20T07:28:35.615Z,44.80
2019-01-20T07:30:38.138Z,41.60
2019-01-20T07:32:41.913Z,40.50
2019-01-20T07:34:45.610Z,41.60
2019-01-20T07:36:49.510Z,32.75
2019-01-20T07:38:53.847Z,38.25
2019-01-20T07:40:57.459Z,38.92
2019-01-20T07:43:01.212Z,39.83
2019-01-20T07:45:08.279Z,40.40
2019-01-20T07:47:12.608Z,46.02
2019-01-20T07:49:17.011Z,40.78
2019-01-20T07:51:20.641Z,47.17
2019-01-20T07:53:24.704Z,40.60
2019-01-20T07:55:28.391Z,45.50
2019-01-20T07:57:32.141Z,47.60
2019-01-20T07:59:37.188Z,41.85
2019-01-20T08:01:40.896Z,42.25
2019-01-20T08:03:44.532Z,40.58
2019-01-20T08:05:51.386Z,41.08
2019-01-20T08:07:56.333Z,42.80
2019-01-20T08:10:00.389Z,42.60
2019-01-20T08:12:04.667Z,39.23
2019-01-20T08:14:08.481Z,41.70
2019-01-20T08:16:12.102Z,44.75
2019-01-20T08:18:16.271Z,40.08
2019-01-20T08:20:23.506Z,45.83
2019-01-20T08:22:30.085Z,39.90
2019-01-20T08:24:33.663Z,42.65
2019-01-20T08:26:38.380Z,43.85
2019-01-20T08:28:42.220Z,39.27
2019-01-20T08:30:45.930Z,42.60
2019-01-20T08:32:49.677Z,46.42
2019-01-20T08:34:53.448Z,50.33
2019-01-20T08:36:57.038Z,47.08
2019-01-20T08:39:00.817Z,51.88
2019-01-20T08:41:04.529Z,53.02
2019-01-20T08:43:08.229Z,52.50
2019-01-20T08:45:15.027Z,48.90
2019-01-20T08:47:19.176Z,60.58
2019-01-20T08:49:22.952Z,51.55
2019-01-20T08:51:26.719Z,51.13
2019-01-20T08:53:30.551Z,49.75
2019-01-20T08:55:34.590Z,51.73
2019-01-20T08:57:38.553Z,42.78
2019-01-20T08:59:42.351Z,41.23
2019-01-20T09:01:46.075Z,44.38
2019-01-20T09:03:49.672Z,54.33
2019-01-20T09:05:53.564Z,76.95
2019-01-20T09:07:57.148Z,81.45
2019-01-20T09:10:00.931Z,81.00
2019-01-20T09:12:04.647Z,74.10
2019-01-20T09:14:08.229Z,56.57
2019-01-20T09:16:12.071Z,55.83
2019-01-20T09:18:15.814Z,46.23
2019-01-20T09:20:19.576Z,49.87
2019-01-20T09:22:23.338Z,47.70
2019-01-20T09:24:27.018Z,47.60
2019-01-20T09:26:30.752Z,46.90
2019-01-20T09:28:34.535Z,44.90
2019-01-20T09:30:38.533Z,46.97
2019-01-20T09:32:42.280Z,47.37
2019-01-20T09:34:45.945Z,49.87
2019-01-20T09:36:49.774Z,48.30
2019-01-20T09:38:53.579Z,49.20
2019-01-20T09:40:57.333Z,45.97
2019-01-20T09:43:01.006Z,44.10
2019-01-20T09:45:07.404Z,44.73
2019-01-20T09:47:11.237Z,54.90
2019-01-20T09:49:14.863Z,53.67
2019-01-20T09:51:18.664Z,46.47
2019-01-20T09:53:22.318Z,40.73
2019-01-20T09:55:26.091Z,47.80
2019-01-20T09:57:29.785Z,39.83
2019-01-20T09:59:33.489Z,50.37
2019-01-20T10:01:37.420Z,47.87
2019-01-20T10:03:41.194Z,44.60
2019-01-20T10:05:45.007Z,44.17
2019-01-20T10:07:50.774Z,38.43
2019-01-20T10:09:54.600Z,43.03
2019-01-20T10:11:58.406Z,37.80
2019-01-20T10:14:02.230Z,35.77
2019-01-20T10:16:06.069Z,36.77
2019-01-20T10:18:09.905Z,35.60
2019-01-20T10:20:16.686Z,31.73
2019-01-20T10:22:20.337Z,34.87
2019-01-20T10:24:25.148Z,38.53
2019-01-20T10:26:28.915Z,37.87
2019-01-20T10:28:32.622Z,35.90
2019-01-20T10:30:37.807Z,31.77
2019-01-20T10:32:41.595Z,35.03
2019-01-20T10:34:45.514Z,33.37
2019-01-20T10:36:49.240Z,34.37
2019-01-20T10:38:53.073Z,34.47
2019-01-20T10:40:56.919Z,39.80
2019-01-20T10:43:00.598Z,37.20
2019-01-20T10:45:05.642Z,34.93
2019-01-20T10:47:09.356Z,37.10
2019-01-20T10:49:13.160Z,35.30
2019-01-20T10:51:17.019Z,39.60
2019-01-20T10:53:20.801Z,38.23
2019-01-20T10:55:24.538Z,43.80
2019-01-20T10:57:28.285Z,42.33
2019-01-20T10:59:32.021Z,39.80
2019-01-20T11:01:35.824Z,38.17
2019-01-20T11:03:39.566Z,39.47
2019-01-20T11:05:43.344Z,145.53
2019-01-20T11:07:47.164Z,64.57
2019-01-20T11:09:50.812Z,57.50
2019-01-20T11:11:54.756Z,41.83
2019-01-20T11:13:58.438Z,42.67
2019-01-20T11:16:02.156Z,35.97
2019-01-20T11:18:06.131Z,33.33
2019-01-20T11:20:18.877Z,33.43
2019-01-20T11:22:22.591Z,34.17
2019-01-20T11:24:26.447Z,32.50
2019-01-20T11:26:30.368Z,34.17
2019-01-20T11:28:34.131Z,32.47
2019-01-20T11:30:37.845Z,32.47
2019-01-20T11:32:42.492Z,35.30
2019-01-20T11:34:46.486Z,35.47
2019-01-20T11:36:50.296Z,54.53
2019-01-20T11:38:54.062Z,37.73
2019-01-20T11:40:57.910Z,40.13
2019-01-20T11:43:01.679Z,38.67
2019-01-20T11:45:08.539Z,38.07
2019-01-20T11:47:13.255Z,39.47
2019-01-20T11:49:16.959Z,35.07
2019-01-20T11:51:20.704Z,30.67
2019-01-20T11:53:24.454Z,31.10
2019-01-20T11:55:29.948Z,32.53
2019-01-20T11:57:33.774Z,32.17
2019-01-20T11:59:37.515Z,32.30
2019-01-20T12:01:41.172Z,28.40
2019-01-20T12:03:45.010Z,29.87
2019-01-20T12:05:48.714Z,34.50
2019-01-20T12:07:52.448Z,31.40
2019-01-20T12:09:56.071Z,31.13
2019-01-20T12:11:59.745Z,27.57
2019-01-20T12:14:03.697Z,30.10
2019-01-20T12:16:07.655Z,28.80
2019-01-20T12:18:11.317Z,29.57
2019-01-20T12:20:16.456Z,28.60
2019-01-20T12:22:20.232Z,31.97
2019-01-20T12:24:24.189Z,31.00
2019-01-20T12:26:30.164Z,29.03
2019-01-20T12:28:33.471Z,27.33
2019-01-20T12:30:39.085Z,30.57
2019-01-20T12:32:42.737Z,27.37
2019-01-20T12:34:46.542Z,28.47
2019-01-20T12:36:50.262Z,29.53
2019-01-20T12:38:54.128Z,35.17
2019-01-20T12:40:57.891Z,31.37
2019-01-20T12:43:01.616Z,30.17
2019-01-20T12:45:06.969Z,28.20
2019-01-20T12:47:10.685Z,31.10
2019-01-20T12:49:14.319Z,29.57
2019-01-20T12:51:17.914Z,25.87
2019-01-20T12:53:21.710Z,31.23
2019-01-20T12:55:25.559Z,27.53
2019-01-20T12:57:29.271Z,29.40
2019-01-20T12:59:33.020Z,29.30
2019-01-20T13:01:36.776Z,24.97
2019-01-20T13:03:40.547Z,28.53
2019-01-20T13:05:44.374Z,30.63
2019-01-20T13:07:48.317Z,33.03
2019-01-20T13:09:51.974Z,36.70
2019-01-20T13:11:55.669Z,30.73
2019-01-20T13:13:59.874Z,31.63
2019-01-20T13:16:03.755Z,32.93
2019-01-20T13:18:07.542Z,27.67
2019-01-20T13:20:15.477Z,27.20
2019-01-20T13:22:19.404Z,29.13
2019-01-20T13:24:23.118Z,30.57
2019-01-20T13:26:26.861Z,29.20
2019-01-20T13:28:30.517Z,33.87
2019-01-20T13:30:34.496Z,32.87
2019-01-20T13:32:38.391Z,28.60
2019-01-20T13:34:45.735Z,30.80
2019-01-20T13:36:49.064Z,31.43
2019-01-20T13:38:53.390Z,29.27
2019-01-20T13:40:58.570Z,31.30
2019-01-20T13:43:02.494Z,29.17
2019-01-20T13:45:09.392Z,30.53
2019-01-20T13:47:13.287Z,33.63
2019-01-20T13:49:17.081Z,33.63
2019-01-20T13:51:20.953Z,27.70
2019-01-20T13:53:26.022Z,32.13
2019-01-20T13:55:30.498Z,26.90
2019-01-20T13:57:36.109Z,30.10
2019-01-20T13:59:40.151Z,26.13
2019-01-20T14:01:43.896Z,31.20
2019-01-20T14:03:48.056Z,28.83
2019-01-20T14:05:52.309Z,34.23
2019-01-20T14:07:56.194Z,29.33
2019-01-20T14:10:00.238Z,30.40
2019-01-20T14:12:04.275Z,30.97
2019-01-20T14:14:08.591Z,34.00
2019-01-20T14:16:12.457Z,29.03
2019-01-20T14:18:17.734Z,32.40
2019-01-20T14:20:23.926Z,27.40
2019-01-20T14:22:27.822Z,28.90
2019-01-20T14:24:31.755Z,28.73
2019-01-20T14:26:35.610Z,29.93
2019-01-20T14:28:39.385Z,26.83
2019-01-20T14:30:43.114Z,31.47
2019-01-20T14:32:46.925Z,33.10
2019-01-20T14:34:50.737Z,25.70
2019-01-20T14:36:54.477Z,30.17
2019-01-20T14:38:58.552Z,32.87
2019-01-20T14:41:02.467Z,28.60
2019-01-20T14:43:06.485Z,30.03
2019-01-20T14:45:13.715Z,32.40
2019-01-20T14:47:17.642Z,25.40
2019-01-20T14:49:21.563Z,30.47
2019-01-20T14:51:25.365Z,30.57
2019-01-20T14:53:29.243Z,30.43
2019-01-20T14:55:34.126Z,29.13
2019-01-20T14:57:38.111Z,26.80
2019-01-20T14:59:42.007Z,29.57
2019-01-20T15:01:45.848Z,33.00
2019-01-20T15:03:49.807Z,28.23
2019-01-20T15:05:53.629Z,31.13
2019-01-20T15:07:58.020Z,32.03
2019-01-20T15:10:02.122Z,30.47
2019-01-20T15:12:06.679Z,34.83
2019-01-20T15:14:10.420Z,33.17
2019-01-20T15:16:14.228Z,32.20
2019-01-20T15:18:18.318Z,39.40
2019-01-20T15:20:22.342Z,32.23
2019-01-20T15:22:26.077Z,34.20
2019-01-20T15:24:31.361Z,37.00
2019-01-20T15:26:35.808Z,33.87
2019-01-20T15:28:39.571Z,33.20
2019-01-20T15:30:44.051Z,37.03
2019-01-20T15:32:48.271Z,36.37
2019-01-20T15:34:52.094Z,33.33
2019-01-20T15:36:55.908Z,39.87
2019-01-20T15:38:59.593Z,43.10
2019-01-20T15:41:03.270Z,39.30
2019-01-20T15:43:06.963Z,40.80
2019-01-20T15:45:16.519Z,41.23
2019-01-20T15:47:18.780Z,38.83
2019-01-20T15:49:22.478Z,38.40
2019-01-20T15:51:26.560Z,35.07
2019-01-20T15:53:30.305Z,35.70
2019-01-20T15:55:35.265Z,35.43
2019-01-20T15:57:39.030Z,35.37
2019-01-20T15:59:42.860Z,31.27
2019-01-20T16:01:46.543Z,55.90
2019-01-20T16:03:50.384Z,60.47
2019-01-20T16:05:54.772Z,39.33
2019-01-20T16:07:58.693Z,40.70
2019-01-20T16:10:02.483Z,38.83
2019-01-20T16:12:06.318Z,39.97
2019-01-20T16:14:10.042Z,49.77
2019-01-20T16:16:13.822Z,40.63
2019-01-20T16:18:17.445Z,40.23
2019-01-20T16:20:21.224Z,37.70
2019-01-20T16:22:24.975Z,40.27
2019-01-20T16:24:28.742Z,38.00
2019-01-20T16:26:32.516Z,39.00
2019-01-20T16:28:36.986Z,40.17
2019-01-20T16:30:40.765Z,40.23
2019-01-20T16:32:44.589Z,39.47
2019-01-20T16:34:48.337Z,42.60
2019-01-20T16:36:52.118Z,41.03
2019-01-20T16:38:55.941Z,44.87
2019-01-20T16:40:59.630Z,43.93
2019-01-20T16:43:03.442Z,47.20
2019-01-20T16:45:13.563Z,37.27
2019-01-20T16:47:17.335Z,40.90
2019-01-20T16:49:21.129Z,52.07
2019-01-20T16:51:24.963Z,56.60
2019-01-20T16:53:28.635Z,68.50
2019-01-20T16:55:32.332Z,80.50
2019-01-20T16:57:36.095Z,61.67
2019-01-20T16:59:39.765Z,64.90
2019-01-20T17:01:43.530Z,65.10
2019-01-20T17:03:47.211Z,79.13
2019-01-20T17:05:51.011Z,75.67
2019-01-20T17:07:54.795Z,66.07
2019-01-20T17:09:58.516Z,65.73
2019-01-20T17:12:02.327Z,64.90
2019-01-20T17:14:06.058Z,74.90
2019-01-20T17:16:09.837Z,52.67
2019-01-20T17:18:13.821Z,52.17
2019-01-20T17:20:18.777Z,41.90
2019-01-20T17:22:24.149Z,43.80
2019-01-20T17:24:27.856Z,39.00
2019-01-20T17:26:31.640Z,45.33
2019-01-20T17:28:35.518Z,45.27
2019-01-20T17:30:39.464Z,42.87
2019-01-20T17:32:43.181Z,37.27
2019-01-20T17:34:46.829Z,41.07
2019-01-20T17:36:50.601Z,36.60
2019-01-20T17:38:54.237Z,39.53
2019-01-20T17:40:57.902Z,40.70
2019-01-20T17:43:01.633Z,47.30
2019-01-20T17:45:08.383Z,42.17
2019-01-20T17:47:12.101Z,44.53
2019-01-20T17:49:15.714Z,50.33
2019-01-20T17:51:19.434Z,52.13
2019-01-20T17:53:23.243Z,44.47
2019-01-20T17:55:26.941Z,42.83
2019-01-20T17:57:32.947Z,47.20
2019-01-20T17:59:36.653Z,48.67
2019-01-20T18:01:40.347Z,49.60
2019-01-20T18:03:44.108Z,52.08
2019-01-20T18:05:47.928Z,44.83
2019-01-20T18:07:51.682Z,43.78
2019-01-20T18:09:55.427Z,42.58
2019-01-20T18:11:59.236Z,52.43
2019-01-20T18:14:03.131Z,41.50
2019-01-20T18:16:06.903Z,43.30
2019-01-20T18:18:16.803Z,50.80
2019-01-20T18:20:23.764Z,42.43
2019-01-20T18:22:27.391Z,50.30
2019-01-20T18:24:31.543Z,44.77
2019-01-20T18:26:35.338Z,42.17
2019-01-20T18:28:40.864Z,45.35
2019-01-20T18:30:47.662Z,46.55
2019-01-20T18:32:52.194Z,46.40
2019-01-20T18:34:57.712Z,55.35
2019-01-20T18:37:01.626Z,40.38
2019-01-20T18:39:07.644Z,45.40
2019-01-20T18:41:23.426Z,50.98
2019-01-20T18:43:17.704Z,49.88
2019-01-20T18:45:24.438Z,46.35
2019-01-20T18:47:28.744Z,51.05
2019-01-20T18:49:33.139Z,44.40
2019-01-20T18:51:37.186Z,52.07
2019-01-20T18:53:41.044Z,42.38
2019-01-20T18:55:45.097Z,47.13
2019-01-20T18:57:49.066Z,42.60
2019-01-20T18:59:53.190Z,50.95
2019-01-20T19:01:57.304Z,51.37
2019-01-20T19:04:01.179Z,44.23
2019-01-20T19:06:05.264Z,44.15
2019-01-20T19:08:09.300Z,55.17
2019-01-20T19:10:15.951Z,48.85
2019-01-20T19:12:19.930Z,48.58
2019-01-20T19:14:24.301Z,67.82
2019-01-20T19:16:28.736Z,44.93
2019-01-20T19:18:32.684Z,51.25
2019-01-20T19:20:36.994Z,50.25
2019-01-20T19:22:41.303Z,47.50
2019-01-20T19:24:45.540Z,50.63
2019-01-20T19:26:49.967Z,47.65
2019-01-20T19:28:54.306Z,47.30
2019-01-20T19:30:58.436Z,42.95
2019-01-20T19:33:02.421Z,50.03
2019-01-20T19:35:08.652Z,41.02
2019-01-20T19:37:12.638Z,52.25
2019-01-20T19:39:16.575Z,41.88
2019-01-20T19:41:20.521Z,45.90
2019-01-20T19:43:24.414Z,45.48
2019-01-20T19:45:28.234Z,43.52
2019-01-20T19:47:31.931Z,47.38
2019-01-20T19:49:36.528Z,45.83
2019-01-20T19:51:40.271Z,65.47
2019-01-20T19:53:44.026Z,56.73
2019-01-20T19:55:48.542Z,63.90
2019-01-20T19:57:53.413Z,61.90
2019-01-20T19:59:59.874Z,65.92
2019-01-20T20:02:03.821Z,56.42
2019-01-20T20:04:08.149Z,57.33
2019-01-20T20:06:13.995Z,61.10
2019-01-20T20:08:18.302Z,75.57
2019-01-20T20:10:27.785Z,104.38
2019-01-20T20:12:31.993Z,78.25
2019-01-20T20:14:36.387Z,105.10
2019-01-20T20:16:42.301Z,76.55
2019-01-20T20:18:46.954Z,61.70
2019-01-20T20:20:52.006Z,62.20
2019-01-20T20:22:56.460Z,80.95
2019-01-20T20:25:00.579Z,151.42
2019-01-20T20:27:06.394Z,166.60
2019-01-20T20:29:11.421Z,81.17
2019-01-20T20:31:15.786Z,61.58
2019-01-20T20:33:20.257Z,51.48
2019-01-20T20:35:24.005Z,51.65
2019-01-20T20:37:29.301Z,53.25
2019-01-20T20:39:34.019Z,61.08
2019-01-20T20:41:38.270Z,60.23
2019-01-20T20:43:42.958Z,65.55
2019-01-20T20:45:47.460Z,65.03
2019-01-20T20:47:52.233Z,72.62
2019-01-20T20:49:56.647Z,84.58
2019-01-20T20:52:01.366Z,74.58
2019-01-20T20:54:07.668Z,79.12
2019-01-20T20:56:12.782Z,82.33
2019-01-20T20:58:16.854Z,68.80
2019-01-20T21:00:31.662Z,63.42
2019-01-20T21:02:37.194Z,53.73
2019-01-20T21:04:42.284Z,57.00
2019-01-20T21:06:46.681Z,62.38
2019-01-20T21:08:53.269Z,48.10
2019-01-20T21:10:58.147Z,51.42
2019-01-20T21:13:03.443Z,46.40
2019-01-20T21:15:11.879Z,46.30
2019-01-20T21:17:16.977Z,43.75
2019-01-20T21:19:21.781Z,47.53
2019-01-20T21:21:26.739Z,54.27
2019-01-20T21:23:32.664Z,58.13
2019-01-20T21:25:36.811Z,55.90
2019-01-20T21:27:41.648Z,50.10
2019-01-20T21:29:46.812Z,58.33
2019-01-20T21:31:51.147Z,56.45
2019-01-20T21:33:55.771Z,50.10
2019-01-20T21:36:00.272Z,55.00
2019-01-20T21:38:06.948Z,54.00
2019-01-20T21:40:12.804Z,52.15
2019-01-20T21:42:17.485Z,49.90
2019-01-20T21:44:22.958Z,52.93
2019-01-20T21:46:27.390Z,52.65
2019-01-20T21:48:31.332Z,53.70
2019-01-20T21:50:36.488Z,55.50
2019-01-20T21:52:40.483Z,59.55
2019-01-20T21:54:44.223Z,51.65
2019-01-20T21:56:48.095Z,49.27
2019-01-20T21:58:53.709Z,50.75
2019-01-20T22:00:59.484Z,47.78
2019-01-20T22:03:03.416Z,49.42
2019-01-20T22:05:09.884Z,58.50
2019-01-20T22:07:14.206Z,56.02
2019-01-20T22:09:19.094Z,63.80
2019-01-20T22:11:23.110Z,60.50
2019-01-20T22:13:27.700Z,57.93
2019-01-20T22:15:31.564Z,58.05
2019-01-20T22:17:36.155Z,65.03
2019-01-20T22:19:40.216Z,60.90
2019-01-20T22:21:44.682Z,58.58
2019-01-20T22:23:48.859Z,53.42
2019-01-20T22:25:53.316Z,52.40
2019-01-20T22:27:58.187Z,56.75
2019-01-20T22:30:02.747Z,60.03
2019-01-20T22:32:06.845Z,54.93
2019-01-20T22:34:13.718Z,56.55
2019-01-20T22:36:18.134Z,55.08
2019-01-20T22:38:22.795Z,55.30
2019-01-20T22:40:26.674Z,56.20
2019-01-20T22:42:30.489Z,51.83
2019-01-20T22:44:34.147Z,56.63
2019-01-20T22:46:38.345Z,60.20
2019-01-20T22:48:42.203Z,55.67
2019-01-20T22:50:45.950Z,50.88
2019-01-20T22:52:58.272Z,56.53
2019-01-20T22:55:07.009Z,56.73
2019-01-20T22:57:08.614Z,56.77
2019-01-20T22:59:12.589Z,61.30
2019-01-20T23:01:18.443Z,57.75
2019-01-20T23:03:22.643Z,48.23
2019-01-20T23:05:26.642Z,54.18
2019-01-20T23:07:30.793Z,56.73
2019-01-20T23:09:36.254Z,50.63
2019-01-20T23:11:40.537Z,56.23
2019-01-20T23:13:44.442Z,52.85
2019-01-20T23:15:49.011Z,52.93
2019-01-20T23:17:53.075Z,61.85
2019-01-20T23:19:57.141Z,62.53
2019-01-20T23:22:01.040Z,65.10
2019-01-20T23:24:05.483Z,64.77
2019-01-20T23:26:09.413Z,58.60
2019-01-20T23:28:13.322Z,69.92
2019-01-20T23:30:17.949Z,64.60
2019-01-20T23:32:22.080Z,74.72
2019-01-20T23:34:26.152Z,67.15
2019-01-20T23:36:30.155Z,65.70
2019-01-20T23:38:34.256Z,60.23
2019-01-20T23:40:37.978Z,62.73
2019-01-20T23:42:42.042Z,65.65
2019-01-20T23:44:46.283Z,73.67
2019-01-20T23:46:50.103Z,56.00
2019-01-20T23:48:54.335Z,60.15
2019-01-20T23:50:58.058Z,64.30
2019-01-20T23:53:03.536Z,68.47
2019-01-20T23:55:09.503Z,62.08
2019-01-20T23:57:14.682Z,57.45
2019-01-20T23:59:18.561Z,58.25
